createdAt,value
2018-01-02T00:00:20.101Z,97023.27
2018-01-02T00:01:57.878Z,97006.91
2018-01-02T00:03:34.942Z,97014.20
2018-01-02T00:05:13.290Z,97023.78
2018-01-02T00:06:50.357Z,96991.66
2018-01-02T00:08:28.324Z,97029.84
2018-01-02T00:10:06.118Z,97084.59
2018-01-02T00:11:43.579Z,97121.07
2018-01-02T00:13:20.810Z,97102.83
2018-01-02T00:15:04.677Z,97112.00
2018-01-02T00:16:48.116Z,97157.56
2018-01-02T00:18:25.453Z,97120.17
2018-01-02T00:20:02.849Z,97143.78
2018-01-02T00:21:39.935Z,97130.25
2018-01-02T00:23:16.616Z,97141.14
2018-01-02T00:24:54.031Z,97102.91
2018-01-02T00:26:30.626Z,97062.58
2018-01-02T00:28:07.661Z,97104.23
2018-01-02T00:29:44.535Z,97131.96
2018-01-02T00:31:21.595Z,97108.59
2018-01-02T00:32:58.804Z,97218.50
2018-01-02T00:34:35.938Z,97241.08
2018-01-02T00:36:12.562Z,97279.38
2018-01-02T00:37:50.157Z,97221.03
2018-01-02T00:45:19.722Z,97223.72
2018-01-02T00:46:56.322Z,97082.56
2018-01-02T00:48:33.007Z,96973.55
2018-01-02T00:50:10.790Z,96904.59
2018-01-02T00:51:47.566Z,96894.69
2018-01-02T00:53:25.807Z,96951.52
2018-01-02T00:55:02.463Z,97003.13
2018-01-02T00:56:39.134Z,97103.77
2018-01-02T00:58:16.322Z,97245.58
2018-01-02T00:59:53.631Z,97332.85
2018-01-02T01:01:32.020Z,97423.82
2018-01-02T01:03:09.114Z,97498.66
2018-01-02T01:04:50.644Z,97511.69
2018-01-02T01:06:28.655Z,97499.95
2018-01-02T01:09:49.963Z,97405.12
2018-01-02T01:11:27.488Z,97340.87
2018-01-02T01:13:04.980Z,97484.31
2018-01-02T01:14:42.798Z,97540.49
2018-01-02T01:16:19.843Z,97430.30
2018-01-02T01:17:58.426Z,97300.76
2018-01-02T01:19:35.887Z,97311.19
2018-01-02T01:21:12.914Z,97388.63
2018-01-02T01:22:50.542Z,97342.94
2018-01-02T01:24:28.145Z,97225.11
2018-01-02T01:26:05.012Z,97292.15
2018-01-02T01:27:42.178Z,97264.35
2018-01-02T01:29:19.308Z,97393.81
2018-01-02T01:30:56.952Z,97383.30
2018-01-02T01:32:33.909Z,97347.34
2018-01-02T01:34:10.647Z,97317.73
2018-01-02T01:35:47.336Z,97348.16
2018-01-02T01:37:25.168Z,97348.66
2018-01-02T01:39:01.880Z,97371.61
2018-01-02T01:40:39.126Z,97365.10
2018-01-02T01:42:15.974Z,97416.88
2018-01-02T01:43:52.757Z,97416.42
2018-01-02T01:45:30.457Z,97417.78
2018-01-02T01:47:08.028Z,97381.23
2018-01-02T01:48:56.063Z,97363.81
2018-01-02T01:50:33.124Z,97257.27
2018-01-02T01:52:10.515Z,97298.15
2018-01-02T01:53:47.703Z,97278.68
2018-01-02T01:55:25.041Z,97318.63
2018-01-02T01:57:02.370Z,97297.72
2018-01-02T01:58:38.984Z,97370.33
2018-01-02T02:00:21.408Z,97423.86
2018-01-02T02:01:59.035Z,97457.84
2018-01-02T02:03:36.155Z,97390.38
2018-01-02T02:05:12.893Z,97437.38
2018-01-02T02:06:50.304Z,97407.77
2018-01-02T02:08:27.323Z,97390.31
2018-01-02T02:10:04.672Z,97355.63
2018-01-02T02:11:41.735Z,97327.82
2018-01-02T02:13:18.479Z,97348.66
2018-01-02T02:14:56.992Z,97407.41
2018-01-02T02:16:34.497Z,97428.30
2018-01-02T02:18:11.290Z,97416.14
2018-01-02T02:19:48.090Z,97453.08
2018-01-02T02:21:24.627Z,97436.52
2018-01-02T02:23:01.841Z,97453.88
2018-01-02T02:24:38.455Z,97336.97
2018-01-02T02:26:16.136Z,97317.38
2018-01-02T02:27:54.009Z,97179.16
2018-01-02T02:29:30.902Z,97181.37
2018-01-02T02:31:07.999Z,97337.83
2018-01-02T02:32:45.633Z,97345.27
2018-01-02T02:34:22.658Z,97298.15
2018-01-02T02:36:00.438Z,97305.20
2018-01-02T02:37:38.450Z,97227.83
2018-01-02T02:39:15.008Z,97212.16
2018-01-02T02:41:04.627Z,97117.88
2018-01-02T02:42:41.863Z,97077.98
2018-01-02T02:44:19.215Z,97111.84
2018-01-02T02:45:56.058Z,97146.08
2018-01-02T02:47:32.560Z,97300.95
2018-01-02T02:49:09.541Z,97349.48
2018-01-02T02:50:46.573Z,97259.13
2018-01-02T02:52:23.908Z,97300.84
2018-01-02T02:54:00.745Z,97323.00
2018-01-02T02:55:37.743Z,97289.62
2018-01-02T02:57:14.710Z,97361.36
2018-01-02T02:58:52.410Z,97439.64
2018-01-02T03:00:29.825Z,97488.40
2018-01-02T03:02:07.453Z,97483.20
2018-01-02T03:03:44.444Z,97464.86
2018-01-02T03:05:20.969Z,97400.94
2018-01-02T03:06:57.476Z,97328.68
2018-01-02T03:08:34.860Z,97289.15
2018-01-02T03:10:11.742Z,97330.90
2018-01-02T03:11:49.214Z,97386.56
2018-01-02T03:13:26.426Z,97383.13
2018-01-02T03:15:03.539Z,97371.87
2018-01-02T03:16:40.252Z,97308.73
2018-01-02T03:18:16.856Z,97375.41
2018-01-02T03:19:53.767Z,97310.48
2018-01-02T03:21:30.737Z,97332.19
2018-01-02T03:23:07.342Z,97318.39
2018-01-02T03:24:45.013Z,97288.33
2018-01-02T03:26:22.126Z,97223.47
2018-01-02T03:27:59.392Z,97244.84
2018-01-02T03:29:36.048Z,97227.48
2018-01-02T03:31:13.024Z,97132.70
2018-01-02T03:32:50.752Z,97240.14
2018-01-02T03:34:27.507Z,97317.45
2018-01-02T03:36:04.023Z,97314.81
2018-01-02T03:37:41.043Z,97283.55
2018-01-02T03:39:18.298Z,97327.00
2018-01-02T03:40:56.299Z,97397.44
2018-01-02T03:42:32.784Z,97379.59
2018-01-02T03:44:09.320Z,97325.32
2018-01-02T03:45:46.044Z,97280.55
2018-01-02T03:47:24.763Z,97363.11
2018-01-02T03:49:03.550Z,97384.45
2018-01-02T03:50:40.075Z,97352.24
2018-01-02T03:52:16.512Z,97356.56
2018-01-02T03:53:54.394Z,97351.34
2018-01-02T03:55:31.731Z,97354.34
2018-01-02T03:57:08.595Z,97346.63
2018-01-02T03:58:45.056Z,97229.70
2018-01-02T04:00:24.416Z,97123.20
2018-01-02T04:02:01.052Z,97147.95
2018-01-02T04:03:37.502Z,97226.20
2018-01-02T04:05:14.070Z,97265.33
2018-01-02T04:06:52.383Z,97279.65
2018-01-02T04:08:31.239Z,97203.59
2018-01-02T04:10:07.912Z,97179.66
2018-01-02T04:11:44.360Z,97260.50
2018-01-02T04:13:21.400Z,97260.06
2018-01-02T04:14:57.960Z,97247.06
2018-01-02T04:16:35.534Z,97199.19
2018-01-02T04:18:12.416Z,97165.73
2018-01-02T04:19:50.558Z,97071.98
2018-01-02T04:21:27.332Z,96995.55
2018-01-02T04:23:04.210Z,96905.22
2018-01-02T04:24:40.954Z,96919.59
2018-01-02T04:27:47.612Z,96972.59
2018-01-02T04:29:24.880Z,97025.95
2018-01-02T04:31:01.671Z,97061.48
2018-01-02T04:32:39.628Z,97095.86
2018-01-02T04:34:16.218Z,97105.82
2018-01-02T04:35:52.906Z,97116.28
2018-01-02T04:37:29.496Z,97102.75
2018-01-02T04:39:06.552Z,97118.39
2018-01-02T04:40:43.120Z,97139.73
2018-01-02T04:42:20.343Z,97178.45
2018-01-02T04:43:56.920Z,97204.48
2018-01-02T04:45:34.105Z,97201.84
2018-01-02T04:47:10.833Z,97185.34
2018-01-02T04:48:48.497Z,97175.30
2018-01-02T04:50:24.976Z,97168.80
2018-01-02T04:52:01.852Z,97173.59
2018-01-02T04:53:38.540Z,97160.98
2018-01-02T04:55:15.803Z,97098.08
2018-01-02T04:56:52.588Z,97114.53
2018-01-02T04:58:29.205Z,97108.47
2018-01-02T05:00:05.832Z,97082.84
2018-01-02T05:01:44.548Z,97040.77
2018-01-02T05:03:21.160Z,97048.07
2018-01-02T05:04:58.042Z,97083.30
2018-01-02T05:06:34.593Z,97153.62
2018-01-02T05:08:15.677Z,97124.88
2018-01-02T05:09:53.013Z,97062.84
2018-01-02T05:11:29.968Z,97031.98
2018-01-02T05:13:07.629Z,97093.72
2018-01-02T05:14:44.108Z,97187.98
2018-01-02T05:16:21.582Z,97190.98
2018-01-02T05:17:58.509Z,97203.20
2018-01-02T05:19:35.010Z,97192.84
2018-01-02T05:21:11.562Z,97235.42
2018-01-02T05:22:48.090Z,97210.13
2018-01-02T05:24:25.167Z,97213.13
2018-01-02T05:26:01.946Z,97235.38
2018-01-02T05:27:38.417Z,97225.38
2018-01-02T05:29:14.894Z,97223.98
2018-01-02T05:30:51.436Z,97263.18
2018-01-02T05:32:34.425Z,97268.44
2018-01-02T05:34:10.969Z,97215.30
2018-01-02T05:35:47.527Z,97230.20
2018-01-02T05:37:25.631Z,97250.60
2018-01-02T05:39:02.261Z,97265.43
2018-01-02T05:40:39.522Z,97265.33
2018-01-02T05:42:15.956Z,97273.58
2018-01-02T05:43:54.021Z,97232.77
2018-01-02T05:45:31.089Z,97206.23
2018-01-02T05:47:07.549Z,97182.77
2018-01-02T05:48:44.063Z,97176.19
2018-01-02T05:50:21.756Z,97155.34
2018-01-02T05:51:58.375Z,97135.84
2018-01-02T05:53:34.834Z,97178.02
2018-01-02T05:55:11.322Z,97131.45
2018-01-02T05:56:48.949Z,97131.95
2018-01-02T05:58:25.372Z,97211.91
2018-01-02T06:00:02.504Z,97253.68
2018-01-02T06:01:38.962Z,97222.39
2018-01-02T06:03:15.463Z,97204.91
2018-01-02T06:04:52.806Z,97200.12
2018-01-02T06:06:29.621Z,97143.70
2018-01-02T06:08:06.269Z,97131.92
2018-01-02T06:09:43.099Z,97133.28
2018-01-02T06:11:19.623Z,97178.88
2018-01-02T06:12:56.145Z,97204.13
2018-01-02T06:14:32.674Z,97166.63
2018-01-02T06:16:09.734Z,97082.87
2018-01-02T06:17:46.325Z,97064.67
2018-01-02T06:19:23.348Z,97125.50
2018-01-02T06:20:59.868Z,97203.20
2018-01-02T06:22:37.993Z,97267.97
2018-01-02T06:24:17.109Z,97263.25
2018-01-02T06:25:53.705Z,97265.00
2018-01-02T06:27:30.304Z,97289.30
2018-01-02T06:29:07.976Z,97301.92
2018-01-02T06:30:44.651Z,97284.44
2018-01-02T06:32:22.542Z,97220.17
2018-01-02T06:33:59.174Z,97111.58
2018-01-02T06:35:37.669Z,97107.26
2018-01-02T06:37:14.965Z,97082.45
2018-01-02T06:38:52.441Z,97088.16
2018-01-02T06:40:29.518Z,97171.45
2018-01-02T06:42:06.100Z,97248.50
2018-01-02T06:43:42.686Z,97245.81
2018-01-02T06:45:20.001Z,97300.63
2018-01-02T06:46:57.082Z,97316.28
2018-01-02T06:48:34.133Z,97297.16
2018-01-02T06:50:10.794Z,97266.68
2018-01-02T06:51:48.578Z,97251.92
2018-01-02T06:53:25.482Z,97238.49
2018-01-02T06:55:01.966Z,97267.15
2018-01-02T06:56:38.795Z,97299.34
2018-01-02T06:58:15.704Z,97319.28
2018-01-02T06:59:52.396Z,97357.58
2018-01-02T07:01:29.343Z,97409.34
2018-01-02T07:03:05.908Z,97407.17
2018-01-02T07:04:42.996Z,97398.37
2018-01-02T07:06:20.320Z,97330.61
2018-01-02T07:07:56.887Z,97287.23
2018-01-02T07:09:34.323Z,97242.47
2018-01-02T07:11:11.564Z,97232.89
2018-01-02T07:12:48.112Z,97288.98
2018-01-02T07:14:26.483Z,97365.02
2018-01-02T07:16:03.856Z,97372.41
2018-01-02T07:17:40.767Z,97346.78
2018-01-02T07:19:17.318Z,97307.25
2018-01-02T07:20:53.848Z,97323.88
2018-01-02T07:22:30.468Z,97410.35
2018-01-02T07:24:07.013Z,97407.20
2018-01-02T07:25:44.637Z,97293.34
2018-01-02T07:27:22.526Z,97321.97
2018-01-02T07:29:00.340Z,97359.91
2018-01-02T07:30:37.624Z,97392.91
2018-01-02T07:32:14.264Z,97383.78
2018-01-02T07:33:50.881Z,97298.02
2018-01-02T07:35:27.784Z,97319.47
2018-01-02T07:37:04.252Z,97360.72
2018-01-02T07:38:40.809Z,97327.19
2018-01-02T07:40:17.244Z,97276.38
2018-01-02T07:41:54.295Z,97225.10
2018-01-02T07:43:31.593Z,97183.70
2018-01-02T07:45:12.094Z,97148.53
2018-01-02T07:46:50.420Z,97103.79
2018-01-02T07:48:27.530Z,97099.09
2018-01-02T07:50:03.970Z,97084.73
2018-01-02T07:51:40.867Z,97066.03
2018-01-02T07:53:19.198Z,97050.87
2018-01-02T07:54:56.765Z,97036.17
2018-01-02T07:56:34.149Z,96995.67
2018-01-02T07:58:11.513Z,97052.63
2018-01-02T07:59:48.882Z,97096.91
2018-01-02T08:01:25.946Z,97131.68
2018-01-02T08:03:02.465Z,97107.69
2018-01-02T08:04:39.028Z,97115.50
2018-01-02T08:06:15.605Z,97139.47
2018-01-02T08:07:53.394Z,97188.05
2018-01-02T08:09:30.030Z,97179.38
2018-01-02T08:11:06.560Z,97123.40
2018-01-02T08:12:44.103Z,97144.64
2018-01-02T08:14:22.229Z,97112.43
2018-01-02T08:15:59.823Z,97090.37
2018-01-02T08:17:36.464Z,97087.38
2018-01-02T08:19:12.958Z,97064.83
2018-01-02T08:20:50.552Z,97069.15
2018-01-02T08:22:28.184Z,97043.56
2018-01-02T08:24:04.767Z,97054.41
2018-01-02T08:25:41.821Z,97039.63
2018-01-02T08:27:18.732Z,97032.75
2018-01-02T08:28:56.981Z,97058.77
2018-01-02T08:30:34.685Z,97063.55
2018-01-02T08:32:12.957Z,97026.96
2018-01-02T08:33:51.159Z,97055.19
2018-01-02T08:35:27.650Z,97082.09
2018-01-02T08:37:04.925Z,97126.89
2018-01-02T08:38:42.218Z,97174.75
2018-01-02T08:40:20.966Z,97166.42
2018-01-02T08:41:58.028Z,97205.64
2018-01-02T08:45:07.908Z,97116.05
2018-01-02T08:46:45.028Z,97114.26
2018-01-02T09:00:01.059Z,97186.85
2018-01-02T09:01:37.864Z,97155.49
2018-01-02T09:03:14.920Z,97176.03
2018-01-02T09:04:51.445Z,97074.86
2018-01-02T09:06:28.356Z,97109.63
2018-01-02T09:08:05.092Z,97103.95
2018-01-02T09:09:41.560Z,97221.72
2018-01-02T09:11:18.093Z,97246.43
2018-01-02T09:12:55.154Z,97260.05
2018-01-02T09:14:36.605Z,97349.57
2018-01-02T09:16:13.412Z,97452.67
2018-01-02T09:17:51.469Z,97493.95
2018-01-02T09:19:28.487Z,97493.45
2018-01-02T09:21:09.249Z,97377.74
2018-01-02T09:22:46.029Z,97351.72
2018-01-02T09:25:58.516Z,97395.55
2018-01-02T09:29:13.022Z,97435.64
2018-01-02T09:30:50.224Z,97434.82
2018-01-02T09:32:33.719Z,97462.61
2018-01-02T09:34:11.028Z,97459.57
2018-01-02T09:35:47.524Z,97351.18
2018-01-02T09:37:28.721Z,97316.47
2018-01-02T09:39:05.672Z,97414.40
2018-01-02T09:40:42.686Z,97518.50
2018-01-02T09:42:19.226Z,97573.69
2018-01-02T09:43:57.186Z,97683.55
2018-01-02T09:45:33.907Z,97741.09
2018-01-02T09:47:10.413Z,97689.21
2018-01-02T09:48:47.222Z,97691.36
2018-01-02T09:50:24.132Z,97639.50
2018-01-02T09:52:00.600Z,97584.11
2018-01-02T09:53:37.129Z,97608.20
2018-01-02T09:55:13.714Z,97669.16
2018-01-02T09:56:50.732Z,97507.98
2018-01-02T09:58:27.264Z,97561.13
2018-01-02T10:00:04.573Z,97553.25
2018-01-02T10:01:42.061Z,97646.95
2018-01-02T10:03:18.733Z,97685.31
2018-01-02T10:04:56.311Z,97642.15
2018-01-02T10:06:33.833Z,97660.05
2018-01-02T10:08:15.443Z,97696.19
2018-01-02T10:09:53.060Z,97747.25
2018-01-02T10:11:29.796Z,97588.19
2018-01-02T10:13:06.416Z,97443.01
2018-01-02T10:14:43.807Z,97356.55
2018-01-02T10:16:22.135Z,97344.78
2018-01-02T10:17:58.954Z,97507.98
2018-01-02T10:19:35.769Z,97592.45
2018-01-02T10:21:19.577Z,97687.89
2018-01-02T10:22:57.404Z,97618.62
2018-01-02T10:24:34.252Z,97440.94
2018-01-02T10:26:11.065Z,97442.26
2018-01-02T10:27:47.526Z,97433.10
2018-01-02T10:29:24.441Z,97558.05
2018-01-02T10:31:02.471Z,97546.70
2018-01-02T10:32:39.406Z,97561.91
2018-01-02T10:34:16.110Z,97575.41
2018-01-02T10:35:53.239Z,97563.70
2018-01-02T10:37:29.902Z,97502.76
2018-01-02T10:39:06.613Z,97579.84
2018-01-02T10:40:43.513Z,97527.59
2018-01-02T10:42:21.271Z,97457.07
2018-01-02T10:43:57.899Z,97584.68
2018-01-02T10:45:34.689Z,97618.62
2018-01-02T10:47:12.075Z,97602.91
2018-01-02T10:48:49.124Z,97552.32
2018-01-02T10:50:25.718Z,97416.05
2018-01-02T10:52:02.347Z,97490.16
2018-01-02T10:53:39.212Z,97488.41
2018-01-02T10:55:16.349Z,97464.98
2018-01-02T10:56:54.009Z,97624.42
2018-01-02T10:58:30.836Z,97745.06
2018-01-02T11:00:07.598Z,97606.91
2018-01-02T11:01:46.833Z,97613.86
2018-01-02T11:03:23.559Z,97734.60
2018-01-02T11:05:00.072Z,97755.56
2018-01-02T11:06:36.762Z,97708.13
2018-01-02T11:08:13.846Z,97613.07
2018-01-02T11:09:51.305Z,97769.58
2018-01-02T11:13:27.631Z,97889.07
2018-01-02T11:15:04.717Z,97695.84
2018-01-02T11:16:41.421Z,97600.83
2018-01-02T11:20:03.129Z,97593.84
2018-01-02T11:21:39.909Z,97590.27
2018-01-02T11:23:17.376Z,97622.59
2018-01-02T11:24:55.320Z,97655.29
2018-01-02T11:26:32.620Z,97604.27
2018-01-02T11:28:09.330Z,97720.30
2018-01-02T11:29:46.714Z,97778.22
2018-01-02T11:31:24.667Z,97696.27
2018-01-02T11:33:01.599Z,97709.88
2018-01-02T11:34:39.044Z,97680.15
2018-01-02T11:36:15.719Z,97749.08
2018-01-02T11:37:52.735Z,97538.08
2018-01-02T11:39:30.093Z,97544.55
2018-01-02T11:41:07.530Z,97513.70
2018-01-02T11:42:44.091Z,97519.39
2018-01-02T11:44:20.900Z,97549.81
2018-01-02T11:45:57.985Z,97536.40
2018-01-02T11:47:34.557Z,97493.28
2018-01-02T11:49:11.334Z,97598.72
2018-01-02T11:50:48.474Z,97630.05
2018-01-02T11:52:27.773Z,97694.98
2018-01-02T11:54:04.347Z,97735.11
2018-01-02T11:55:41.130Z,97745.17
2018-01-02T11:57:19.167Z,97765.70
2018-01-02T11:58:56.479Z,97773.48
2018-01-02T12:00:33.152Z,97675.34
2018-01-02T12:02:10.784Z,97582.97
2018-01-02T12:03:48.067Z,97614.40
2018-01-02T12:05:25.465Z,97618.73
2018-01-02T12:07:02.061Z,97647.52
2018-01-02T12:08:38.838Z,97711.63
2018-01-02T12:10:15.986Z,97578.67
2018-01-02T12:11:52.502Z,97662.24
2018-01-02T12:13:29.889Z,97661.02
2018-01-02T12:15:07.246Z,97643.12
2018-01-02T12:18:28.253Z,97728.62
2018-01-02T12:20:04.943Z,97770.47
2018-01-02T12:21:41.673Z,97927.98
2018-01-02T12:23:19.430Z,97919.59
2018-01-02T12:26:36.648Z,98060.77
2018-01-02T12:28:13.308Z,98076.42
2018-01-02T12:29:51.030Z,98090.32
2018-01-02T12:31:27.926Z,97936.70
2018-01-02T12:33:05.426Z,97874.36
2018-01-02T12:34:42.829Z,97950.27
2018-01-02T12:36:19.793Z,98013.56
2018-01-02T12:37:56.351Z,97961.13
2018-01-02T12:39:32.938Z,98015.36
2018-01-02T12:41:10.008Z,98126.33
2018-01-02T12:42:47.443Z,98103.56
2018-01-02T12:44:24.989Z,98122.31
2018-01-02T12:46:01.985Z,98076.89
2018-01-02T12:47:38.527Z,97883.44
2018-01-02T12:49:15.812Z,97825.95
2018-01-02T12:50:53.380Z,97989.59
2018-01-02T12:52:30.614Z,98016.15
2018-01-02T12:54:07.100Z,97829.00
2018-01-02T12:55:43.672Z,97812.41
2018-01-02T12:57:20.313Z,97944.09
2018-01-02T12:58:56.921Z,97960.31
2018-01-02T13:00:33.781Z,97878.63
2018-01-02T13:02:10.868Z,97969.92
2018-01-02T13:03:47.392Z,98065.08
2018-01-02T13:05:24.133Z,98068.56
2018-01-02T13:07:00.749Z,98151.16
2018-01-02T13:08:39.213Z,98137.15
2018-01-02T13:10:15.822Z,98163.84
2018-01-02T13:13:32.658Z,98135.95
2018-01-02T13:15:13.878Z,98105.72
2018-01-02T13:16:50.970Z,98190.53
2018-01-02T13:18:27.550Z,98236.88
2018-01-02T13:20:04.281Z,98251.86
2018-01-02T13:21:42.065Z,98195.41
2018-01-02T13:23:19.414Z,98214.59
2018-01-02T13:24:56.093Z,98156.14
2018-01-02T13:26:32.698Z,98057.71
2018-01-02T13:28:10.504Z,98020.53
2018-01-02T13:29:47.104Z,98082.59
2018-01-02T13:31:23.771Z,98151.19
2018-01-02T13:33:00.285Z,98025.38
2018-01-02T13:34:38.238Z,98056.42
2018-01-02T13:36:14.906Z,98107.88
2018-01-02T13:37:52.566Z,98143.86
2018-01-02T13:39:30.253Z,98169.58
2018-01-02T13:41:08.668Z,98143.72
2018-01-02T13:42:45.471Z,98151.26
2018-01-02T13:44:24.031Z,98125.00
2018-01-02T13:46:00.988Z,98167.42
2018-01-02T13:47:38.852Z,98243.89
2018-01-02T13:49:15.356Z,98289.86
2018-01-02T13:50:54.131Z,98242.53
2018-01-02T13:52:30.689Z,98226.48
2018-01-02T13:54:07.747Z,98265.81
2018-01-02T13:55:44.543Z,98277.56
2018-01-02T13:57:21.715Z,98271.48
2018-01-02T13:58:58.296Z,98284.58
2018-01-02T14:00:34.885Z,98253.05
2018-01-02T14:02:12.233Z,98259.20
2018-01-02T14:03:49.884Z,98198.86
2018-01-02T14:05:27.318Z,98143.33
2018-01-02T14:07:04.362Z,98142.06
2018-01-02T14:08:41.070Z,98163.47
2018-01-02T14:10:17.647Z,98183.55
2018-01-02T14:11:55.036Z,98151.26
2018-01-02T14:13:32.039Z,98135.98
2018-01-02T14:15:09.394Z,98027.98
2018-01-02T14:16:47.877Z,97912.31
2018-01-02T14:18:24.465Z,97866.94
2018-01-02T14:20:01.405Z,97942.41
2018-01-02T14:21:38.312Z,98048.48
2018-01-02T14:23:15.429Z,98101.44
2018-01-02T14:24:55.216Z,98168.25
2018-01-02T14:26:33.346Z,98237.31
2018-01-02T14:28:11.481Z,98231.63
2018-01-02T14:29:48.899Z,98214.16
2018-01-02T14:31:25.603Z,98226.89
2018-01-02T14:33:03.061Z,98260.99
2018-01-02T14:34:39.688Z,98252.69
2018-01-02T14:36:17.069Z,98284.64
2018-01-02T14:37:53.994Z,98269.73
2018-01-02T14:39:30.750Z,98261.86
2018-01-02T14:41:07.393Z,98229.02
2018-01-02T14:42:44.785Z,98245.65
2018-01-02T14:44:21.632Z,98207.09
2018-01-02T14:45:58.211Z,98097.06
2018-01-02T14:47:35.045Z,98061.56
2018-01-02T14:49:11.820Z,98142.86
2018-01-02T14:50:48.985Z,98125.40
2018-01-02T14:52:40.046Z,98139.38
2018-01-02T14:54:16.655Z,98050.68
2018-01-02T14:55:53.300Z,98040.63
2018-01-02T14:57:30.486Z,98042.05
2018-01-02T14:59:07.200Z,98079.08
2018-01-02T15:00:43.959Z,98102.23
2018-01-02T15:02:21.756Z,98104.39
2018-01-02T15:04:00.290Z,97980.33
2018-01-02T15:05:36.990Z,97899.97
2018-01-02T15:07:13.675Z,98024.05
2018-01-02T15:08:50.328Z,98046.70
2018-01-02T15:10:28.294Z,98032.66
2018-01-02T15:12:05.037Z,98006.96
2018-01-02T15:13:41.667Z,98019.63
2018-01-02T15:15:19.320Z,98003.41
2018-01-02T15:16:57.289Z,97967.59
2018-01-02T15:18:34.023Z,97978.11
2018-01-02T15:20:10.738Z,97997.34
2018-01-02T15:21:47.504Z,98018.70
2018-01-02T15:23:24.645Z,98004.73
2018-01-02T15:25:01.317Z,97995.58
2018-01-02T15:26:38.287Z,97979.41
2018-01-02T15:28:14.880Z,98000.86
2018-01-02T15:29:52.281Z,97984.17
2018-01-02T15:31:28.970Z,98019.20
2018-01-02T15:33:05.571Z,98007.75
2018-01-02T15:34:42.334Z,98004.73
2018-01-02T15:36:20.039Z,98016.05
2018-01-02T15:37:56.747Z,98053.66
2018-01-02T15:39:33.375Z,98054.98
2018-01-02T15:41:10.720Z,98042.81
2018-01-02T15:42:47.720Z,98058.47
2018-01-02T15:44:24.413Z,98057.11
2018-01-02T15:46:07.714Z,98068.52
2018-01-02T15:49:30.261Z,97981.02
2018-01-02T15:51:07.932Z,97944.85
2018-01-02T15:52:46.157Z,97964.48
2018-01-02T15:54:24.764Z,97930.93
2018-01-02T15:56:02.239Z,97989.81
2018-01-02T15:57:38.771Z,98050.21
2018-01-02T15:59:16.763Z,98068.09
2018-01-02T16:00:53.708Z,98054.89
2018-01-02T16:02:31.001Z,98072.41
2018-01-02T16:04:07.960Z,98094.70
2018-01-02T16:05:45.543Z,98081.92
2018-01-02T16:07:24.166Z,98080.73
2018-01-02T16:09:00.793Z,98028.65
2018-01-02T16:10:37.582Z,97998.09
2018-01-02T16:12:14.173Z,97934.73
2018-01-02T16:13:51.456Z,97882.87
2018-01-02T16:15:31.637Z,97895.13
2018-01-02T16:17:08.346Z,97887.27
2018-01-02T16:18:44.889Z,97927.41
2018-01-02T16:20:23.773Z,97946.64
2018-01-02T16:22:00.425Z,97917.77
2018-01-02T16:23:37.455Z,97866.27
2018-01-02T16:25:14.873Z,97843.60
2018-01-02T16:26:52.077Z,97836.25
2018-01-02T16:28:28.615Z,97799.94
2018-01-02T16:30:05.475Z,97777.25
2018-01-02T16:31:42.412Z,97755.45
2018-01-02T16:33:20.053Z,97714.03
2018-01-02T16:34:56.671Z,97680.47
2018-01-02T16:36:33.293Z,97660.80
2018-01-02T16:38:09.955Z,97621.20
2018-01-02T16:39:47.012Z,97615.19
2018-01-02T16:41:23.831Z,97605.09
2018-01-02T16:43:00.389Z,97642.08
2018-01-02T16:44:37.030Z,97670.48
2018-01-02T16:46:15.046Z,97686.13
2018-01-02T16:47:51.970Z,97692.65
2018-01-02T16:49:28.886Z,97698.27
2018-01-02T16:51:06.271Z,97695.30
2018-01-02T16:52:44.087Z,97672.55
2018-01-02T16:54:21.109Z,97588.47
2018-01-02T16:55:57.773Z,97667.33
2018-01-02T16:57:34.594Z,97718.77
2018-01-02T16:59:11.445Z,97748.00
2018-01-02T17:00:50.068Z,97762.05
2018-01-02T17:02:26.682Z,97730.55
2018-01-02T17:04:04.075Z,97731.48
2018-01-02T17:05:41.252Z,97714.03
2018-01-02T17:07:18.757Z,97658.59
2018-01-02T17:08:55.306Z,97660.41
2018-01-02T17:10:32.266Z,97564.84
2018-01-02T17:12:09.214Z,97636.89
2018-01-02T17:13:45.962Z,97664.70
2018-01-02T17:15:25.523Z,97680.36
2018-01-02T17:17:02.394Z,97680.00
2018-01-02T17:18:39.749Z,97662.95
2018-01-02T17:20:16.379Z,97614.14
2018-01-02T17:21:52.944Z,97617.52
2018-01-02T17:23:29.871Z,97601.90
2018-01-02T17:25:06.960Z,97598.86
2018-01-02T17:26:44.729Z,97561.37
2018-01-02T17:28:21.440Z,97561.80
2018-01-02T17:29:58.089Z,97579.23
2018-01-02T17:31:36.905Z,97563.13
2018-01-02T17:33:14.448Z,97574.41
2018-01-02T17:34:51.081Z,97552.17
2018-01-02T17:36:27.969Z,97580.99
2018-01-02T17:38:04.956Z,97567.39
2018-01-02T17:39:41.602Z,97550.92
2018-01-02T17:41:19.688Z,97578.73
2018-01-02T17:42:56.997Z,97558.73
2018-01-02T17:44:34.016Z,97580.45
2018-01-02T17:47:54.067Z,97596.64
2018-01-02T17:49:31.106Z,97599.29
2018-01-02T17:51:08.424Z,97615.83
2018-01-02T17:52:47.481Z,97620.55
2018-01-02T17:54:26.348Z,97578.34
2018-01-02T17:56:04.513Z,97616.72
2018-01-02T17:57:48.050Z,97633.30
2018-01-02T17:59:26.099Z,97651.06
2018-01-02T18:01:03.270Z,97675.49
2018-01-02T18:02:39.922Z,97708.27
2018-01-02T18:04:17.291Z,97715.61
2018-01-02T18:05:53.910Z,97677.67
2018-01-02T18:07:31.541Z,97679.89
2018-01-02T18:09:08.368Z,97713.42
2018-01-02T18:10:46.622Z,97740.44
2018-01-02T18:12:23.221Z,97764.84
2018-01-02T18:13:59.812Z,97743.09
2018-01-02T18:15:36.737Z,97712.03
2018-01-02T18:17:14.782Z,97700.34
2018-01-02T18:18:52.145Z,97685.48
2018-01-02T18:20:29.539Z,97667.65
2018-01-02T18:22:06.146Z,97644.98
2018-01-02T18:23:43.179Z,97663.70
2018-01-02T18:25:20.911Z,97659.80
2018-01-02T18:26:57.532Z,97651.03
2018-01-02T18:28:34.122Z,97631.05
2018-01-02T18:30:21.285Z,97593.56
2018-01-02T18:31:58.916Z,97572.58
2018-01-02T18:33:35.729Z,97584.00
2018-01-02T18:35:13.005Z,97610.56
2018-01-02T18:36:50.802Z,97594.81
2018-01-02T18:38:28.308Z,97551.70
2018-01-02T18:40:05.803Z,97498.95
2018-01-02T18:41:42.676Z,97424.94
2018-01-02T18:43:19.755Z,97386.67
2018-01-02T18:44:56.315Z,97416.20
2018-01-02T18:46:33.054Z,97416.71
2018-01-02T18:48:09.950Z,97376.77
2018-01-02T18:49:50.098Z,97428.22
2018-01-02T18:51:28.424Z,97447.11
2018-01-02T18:53:05.934Z,97386.67
2018-01-02T18:54:42.622Z,97309.67
2018-01-02T18:56:31.086Z,97348.92
2018-01-02T18:58:07.677Z,97446.65
2018-01-02T18:59:44.314Z,97474.16
2018-01-02T19:01:20.952Z,97502.00
2018-01-02T19:02:57.838Z,97526.80
2018-01-02T19:04:34.490Z,97524.61
2018-01-02T19:06:11.614Z,97505.03
2018-01-02T19:07:48.693Z,97489.44
2018-01-02T19:09:25.757Z,97273.58
2018-01-02T19:11:03.403Z,97224.99
2018-01-02T19:12:39.973Z,97331.87
2018-01-02T19:14:17.620Z,97388.42
2018-01-02T19:15:54.483Z,97441.82
2018-01-02T19:17:32.250Z,97501.96
2018-01-02T19:19:08.828Z,97487.61
2018-01-02T19:20:45.834Z,97338.33
2018-01-02T19:22:22.640Z,97334.44
2018-01-02T19:24:00.096Z,97398.33
2018-01-02T19:25:37.102Z,97360.50
2018-01-02T19:27:13.831Z,97294.05
2018-01-02T19:28:50.914Z,97331.41
2018-01-02T19:30:29.321Z,97413.20
2018-01-02T19:32:06.480Z,97446.65
2018-01-02T19:33:43.729Z,97479.34
2018-01-02T19:35:20.731Z,97505.50
2018-01-02T19:36:57.898Z,97516.73
2018-01-02T19:38:35.445Z,97448.44
2018-01-02T19:40:13.024Z,97424.44